sensor_id;sensor_type;location;lat;lon;timestamp;P1;durP1;ratioP1;P2;durP2;ratioP2
42196;SDS011;27866;48.146;17.098;2024-03-25T00:01:46;3.40;;;1.55;;
42196;SDS011;27866;48.146;17.098;2024-03-25T00:05:57;3.17;;;1.70;;
42196;SDS011;27866;48.146;17.098;2024-03-25T00:10:09;3.67;;;1.45;;
42196;SDS011;27866;48.146;17.098;2024-03-25T00:14:21;2.08;;;1.40;;
42196;SDS011;27866;48.146;17.098;2024-03-25T00:18:33;2.55;;;1.65;;
42196;SDS011;27866;48.146;17.098;2024-03-25T00:22:45;2.17;;;1.50;;
42196;SDS011;27866;48.146;17.098;2024-03-25T00:26:56;2.60;;;1.52;;
42196;SDS011;27866;48.146;17.098;2024-03-25T00:31:08;2.42;;;1.70;;
42196;SDS011;27866;48.146;17.098;2024-03-25T00:35:19;2.17;;;1.60;;
42196;SDS011;27866;48.146;17.098;2024-03-25T00:39:31;3.30;;;1.60;;
42196;SDS011;27866;48.146;17.098;2024-03-25T00:43:43;2.20;;;1.42;;
42196;SDS011;27866;48.146;17.098;2024-03-25T00:47:54;2.22;;;1.50;;
42196;SDS011;27866;48.146;17.098;2024-03-25T00:52:06;2.72;;;1.55;;
42196;SDS011;27866;48.146;17.098;2024-03-25T00:56:17;3.08;;;1.50;;
42196;SDS011;27866;48.146;17.098;2024-03-25T01:00:29;4.07;;;1.65;;
42196;SDS011;27866;48.146;17.098;2024-03-25T01:04:41;2.13;;;1.45;;
42196;SDS011;27866;48.146;17.098;2024-03-25T01:08:53;2.13;;;1.38;;
42196;SDS011;27866;48.146;17.098;2024-03-25T01:13:05;2.22;;;1.35;;
42196;SDS011;27866;48.146;17.098;2024-03-25T01:17:16;1.55;;;1.20;;
42196;SDS011;27866;48.146;17.098;2024-03-25T01:21:28;1.73;;;1.30;;
42196;SDS011;27866;48.146;17.098;2024-03-25T01:25:40;2.72;;;1.38;;
42196;SDS011;27866;48.146;17.098;2024-03-25T01:29:52;1.85;;;1.30;;
42196;SDS011;27866;48.146;17.098;2024-03-25T01:34:03;3.53;;;1.20;;
42196;SDS011;27866;48.146;17.098;2024-03-25T01:38:16;2.28;;;1.20;;
42196;SDS011;27866;48.146;17.098;2024-03-25T01:42:28;2.25;;;1.23;;
42196;SDS011;27866;48.146;17.098;2024-03-25T01:46:40;1.63;;;1.20;;
42196;SDS011;27866;48.146;17.098;2024-03-25T01:50:53;1.77;;;1.30;;
42196;SDS011;27866;48.146;17.098;2024-03-25T01:55:06;1.52;;;1.10;;
42196;SDS011;27866;48.146;17.098;2024-03-25T01:59:22;2.40;;;1.20;;
42196;SDS011;27866;48.146;17.098;2024-03-25T02:03:35;1.52;;;1.27;;
42196;SDS011;27866;48.146;17.098;2024-03-25T02:07:48;2.33;;;1.23;;
42196;SDS011;27866;48.146;17.098;2024-03-25T02:12:00;1.48;;;1.15;;
42196;SDS011;27866;48.146;17.098;2024-03-25T02:16:13;3.63;;;1.30;;
42196;SDS011;27866;48.146;17.098;2024-03-25T02:20:24;1.45;;;1.00;;
42196;SDS011;27866;48.146;17.098;2024-03-25T02:24:36;1.80;;;1.40;;
42196;SDS011;27866;48.146;17.098;2024-03-25T02:28:50;1.83;;;1.30;;
42196;SDS011;27866;48.146;17.098;2024-03-25T02:33:02;1.75;;;1.38;;
42196;SDS011;27866;48.146;17.098;2024-03-25T02:37:13;1.50;;;1.23;;
42196;SDS011;27866;48.146;17.098;2024-03-25T02:41:25;1.58;;;1.27;;
42196;SDS011;27866;48.146;17.098;2024-03-25T02:45:40;3.15;;;1.40;;
42196;SDS011;27866;48.146;17.098;2024-03-25T02:49:52;2.63;;;1.50;;
42196;SDS011;27866;48.146;17.098;2024-03-25T02:54:04;1.90;;;1.40;;
42196;SDS011;27866;48.146;17.098;2024-03-25T02:58:15;1.90;;;1.30;;
42196;SDS011;27866;48.146;17.098;2024-03-25T03:02:27;2.47;;;1.42;;
42196;SDS011;27866;48.146;17.098;2024-03-25T03:06:38;1.80;;;1.30;;
42196;SDS011;27866;48.146;17.098;2024-03-25T03:10:50;3.90;;;1.40;;
42196;SDS011;27866;48.146;17.098;2024-03-25T03:15:02;2.22;;;1.63;;
42196;SDS011;27866;48.146;17.098;2024-03-25T03:19:13;1.63;;;1.40;;
42196;SDS011;27866;48.146;17.098;2024-03-25T03:23:25;1.80;;;1.38;;
42196;SDS011;27866;48.146;17.098;2024-03-25T03:27:37;2.38;;;1.20;;
42196;SDS011;27866;48.146;17.098;2024-03-25T03:31:48;2.35;;;1.40;;
42196;SDS011;27866;48.146;17.098;2024-03-25T03:36:00;3.33;;;1.40;;
42196;SDS011;27866;48.146;17.098;2024-03-25T03:40:11;1.83;;;1.40;;
42196;SDS011;27866;48.146;17.098;2024-03-25T03:44:24;2.03;;;1.42;;
42196;SDS011;27866;48.146;17.098;2024-03-25T03:48:36;1.95;;;1.50;;
42196;SDS011;27866;48.146;17.098;2024-03-25T03:52:48;2.33;;;1.30;;
42196;SDS011;27866;48.146;17.098;2024-03-25T03:57:00;1.83;;;1.35;;
42196;SDS011;27866;48.146;17.098;2024-03-25T04:01:18;2.58;;;1.42;;
42196;SDS011;27866;48.146;17.098;2024-03-25T04:05:30;3.17;;;1.50;;
42196;SDS011;27866;48.146;17.098;2024-03-25T04:09:42;3.17;;;1.65;;
42196;SDS011;27866;48.146;17.098;2024-03-25T04:13:53;2.53;;;1.40;;
42196;SDS011;27866;48.146;17.098;2024-03-25T04:18:05;3.03;;;1.50;;
42196;SDS011;27866;48.146;17.098;2024-03-25T04:22:17;2.75;;;1.65;;
42196;SDS011;27866;48.146;17.098;2024-03-25T04:26:29;2.90;;;1.50;;
42196;SDS011;27866;48.146;17.098;2024-03-25T04:30:40;4.57;;;1.80;;
42196;SDS011;27866;48.146;17.098;2024-03-25T04:34:52;2.95;;;1.90;;
42196;SDS011;27866;48.146;17.098;2024-03-25T04:39:04;2.83;;;1.90;;
42196;SDS011;27866;48.146;17.098;2024-03-25T04:47:31;2.80;;;1.83;;
42196;SDS011;27866;48.146;17.098;2024-03-25T04:51:42;3.00;;;1.90;;
42196;SDS011;27866;48.146;17.098;2024-03-25T04:55:54;3.42;;;2.08;;
42196;SDS011;27866;48.146;17.098;2024-03-25T05:00:06;3.63;;;1.70;;
42196;SDS011;27866;48.146;17.098;2024-03-25T05:04:21;3.53;;;2.00;;
42196;SDS011;27866;48.146;17.098;2024-03-25T05:08:33;3.03;;;1.90;;
42196;SDS011;27866;48.146;17.098;2024-03-25T05:12:45;2.83;;;1.88;;
42196;SDS011;27866;48.146;17.098;2024-03-25T05:16:59;3.85;;;2.00;;
42196;SDS011;27866;48.146;17.098;2024-03-25T05:21:13;3.33;;;2.03;;
42196;SDS011;27866;48.146;17.098;2024-03-25T05:25:25;3.72;;;2.13;;
42196;SDS011;27866;48.146;17.098;2024-03-25T05:29:39;2.67;;;1.80;;
42196;SDS011;27866;48.146;17.098;2024-03-25T05:33:50;3.72;;;1.95;;
42196;SDS011;27866;48.146;17.098;2024-03-25T05:38:02;3.65;;;2.00;;
42196;SDS011;27866;48.146;17.098;2024-03-25T05:42:14;3.08;;;1.92;;
42196;SDS011;27866;48.146;17.098;2024-03-25T05:46:26;4.97;;;1.90;;
42196;SDS011;27866;48.146;17.098;2024-03-25T05:50:37;3.20;;;1.92;;
42196;SDS011;27866;48.146;17.098;2024-03-25T05:54:49;2.58;;;2.08;;
42196;SDS011;27866;48.146;17.098;2024-03-25T05:59:01;3.65;;;1.95;;
42196;SDS011;27866;48.146;17.098;2024-03-25T06:03:12;2.97;;;2.15;;
42196;SDS011;27866;48.146;17.098;2024-03-25T06:07:24;5.05;;;2.00;;
42196;SDS011;27866;48.146;17.098;2024-03-25T06:11:35;3.78;;;2.15;;
42196;SDS011;27866;48.146;17.098;2024-03-25T06:15:47;1.98;;;1.60;;
42196;SDS011;27866;48.146;17.098;2024-03-25T06:19:59;4.30;;;1.90;;
42196;SDS011;27866;48.146;17.098;2024-03-25T06:24:10;2.70;;;1.70;;
42196;SDS011;27866;48.146;17.098;2024-03-25T06:28:22;2.95;;;1.90;;
42196;SDS011;27866;48.146;17.098;2024-03-25T06:32:34;2.60;;;1.95;;
42196;SDS011;27866;48.146;17.098;2024-03-25T06:37:04;6.40;;;1.85;;
42196;SDS011;27866;48.146;17.098;2024-03-25T06:41:16;4.45;;;2.13;;
42196;SDS011;27866;48.146;17.098;2024-03-25T06:45:29;4.28;;;2.03;;
42196;SDS011;27866;48.146;17.098;2024-03-25T06:49:41;11.20;;;2.30;;
42196;SDS011;27866;48.146;17.098;2024-03-25T06:58:07;4.82;;;1.88;;
42196;SDS011;27866;48.146;17.098;2024-03-25T07:02:22;3.50;;;1.80;;
42196;SDS011;27866;48.146;17.098;2024-03-25T07:06:33;5.28;;;2.08;;
42196;SDS011;27866;48.146;17.098;2024-03-25T07:10:45;4.40;;;2.00;;
42196;SDS011;27866;48.146;17.098;2024-03-25T07:14:57;5.22;;;1.85;;
42196;SDS011;27866;48.146;17.098;2024-03-25T07:19:08;7.20;;;1.90;;
42196;SDS011;27866;48.146;17.098;2024-03-25T07:23:20;6.90;;;2.00;;
42196;SDS011;27866;48.146;17.098;2024-03-25T07:27:32;3.97;;;1.90;;
42196;SDS011;27866;48.146;17.098;2024-03-25T07:31:43;6.07;;;2.05;;
42196;SDS011;27866;48.146;17.098;2024-03-25T07:35:56;7.70;;;2.15;;
42196;SDS011;27866;48.146;17.098;2024-03-25T07:40:07;5.20;;;2.00;;
42196;SDS011;27866;48.146;17.098;2024-03-25T07:44:20;3.60;;;1.95;;
42196;SDS011;27866;48.146;17.098;2024-03-25T07:48:32;4.80;;;2.00;;
42196;SDS011;27866;48.146;17.098;2024-03-25T07:52:43;4.00;;;1.90;;
42196;SDS011;27866;48.146;17.098;2024-03-25T07:56:55;3.72;;;2.00;;
42196;SDS011;27866;48.146;17.098;2024-03-25T08:01:07;4.28;;;2.00;;
42196;SDS011;27866;48.146;17.098;2024-03-25T08:05:18;4.68;;;2.13;;
42196;SDS011;27866;48.146;17.098;2024-03-25T08:09:32;3.42;;;1.98;;
42196;SDS011;27866;48.146;17.098;2024-03-25T08:13:44;3.40;;;2.15;;
42196;SDS011;27866;48.146;17.098;2024-03-25T08:17:56;3.03;;;1.83;;
42196;SDS011;27866;48.146;17.098;2024-03-25T08:22:07;3.13;;;1.98;;
42196;SDS011;27866;48.146;17.098;2024-03-25T08:26:19;5.72;;;2.10;;
42196;SDS011;27866;48.146;17.098;2024-03-25T08:30:33;6.30;;;2.28;;
42196;SDS011;27866;48.146;17.098;2024-03-25T08:34:46;2.30;;;1.60;;
42196;SDS011;27866;48.146;17.098;2024-03-25T08:38:58;3.13;;;1.70;;
42196;SDS011;27866;48.146;17.098;2024-03-25T08:43:09;2.97;;;1.90;;
42196;SDS011;27866;48.146;17.098;2024-03-25T08:47:21;3.45;;;1.90;;
42196;SDS011;27866;48.146;17.098;2024-03-25T08:51:33;3.58;;;2.03;;
42196;SDS011;27866;48.146;17.098;2024-03-25T08:55:46;2.43;;;1.50;;
42196;SDS011;27866;48.146;17.098;2024-03-25T08:59:57;4.28;;;1.83;;
42196;SDS011;27866;48.146;17.098;2024-03-25T09:04:09;4.05;;;1.50;;
42196;SDS011;27866;48.146;17.098;2024-03-25T09:08:21;2.75;;;1.50;;
42196;SDS011;27866;48.146;17.098;2024-03-25T09:12:32;5.53;;;1.60;;
42196;SDS011;27866;48.146;17.098;2024-03-25T09:16:44;2.88;;;1.77;;
42196;SDS011;27866;48.146;17.098;2024-03-25T09:20:56;9.35;;;2.20;;
42196;SDS011;27866;48.146;17.098;2024-03-25T09:25:08;3.97;;;1.27;;
42196;SDS011;27866;48.146;17.098;2024-03-25T09:29:20;5.47;;;1.52;;
42196;SDS011;27866;48.146;17.098;2024-03-25T09:33:32;1.90;;;1.50;;
42196;SDS011;27866;48.146;17.098;2024-03-25T09:37:44;5.90;;;1.83;;
42196;SDS011;27866;48.146;17.098;2024-03-25T09:41:57;3.65;;;1.60;;
42196;SDS011;27866;48.146;17.098;2024-03-25T09:46:12;2.30;;;1.33;;
42196;SDS011;27866;48.146;17.098;2024-03-25T09:50:23;3.58;;;1.95;;
42196;SDS011;27866;48.146;17.098;2024-03-25T09:54:38;4.25;;;1.60;;
42196;SDS011;27866;48.146;17.098;2024-03-25T09:58:49;4.00;;;1.30;;
42196;SDS011;27866;48.146;17.098;2024-03-25T10:03:02;1.95;;;1.30;;
42196;SDS011;27866;48.146;17.098;2024-03-25T10:07:24;1.92;;;1.30;;
42196;SDS011;27866;48.146;17.098;2024-03-25T10:11:37;3.90;;;1.40;;
42196;SDS011;27866;48.146;17.098;2024-03-25T10:15:49;3.20;;;1.30;;
42196;SDS011;27866;48.146;17.098;2024-03-25T10:20:01;3.15;;;1.60;;
42196;SDS011;27866;48.146;17.098;2024-03-25T10:24:16;4.15;;;2.05;;
42196;SDS011;27866;48.146;17.098;2024-03-25T10:28:28;2.05;;;1.58;;
42196;SDS011;27866;48.146;17.098;2024-03-25T10:32:39;4.22;;;1.60;;
42196;SDS011;27866;48.146;17.098;2024-03-25T10:36:57;4.78;;;1.50;;
42196;SDS011;27866;48.146;17.098;2024-03-25T10:41:10;3.25;;;1.40;;
42196;SDS011;27866;48.146;17.098;2024-03-25T10:45:30;2.15;;;1.30;;
42196;SDS011;27866;48.146;17.098;2024-03-25T10:53:57;1.95;;;1.25;;
42196;SDS011;27866;48.146;17.098;2024-03-25T10:58:09;2.72;;;1.40;;
42196;SDS011;27866;48.146;17.098;2024-03-25T11:02:22;2.15;;;1.40;;
42196;SDS011;27866;48.146;17.098;2024-03-25T11:06:34;2.75;;;1.40;;
42196;SDS011;27866;48.146;17.098;2024-03-25T11:10:46;4.03;;;1.55;;
42196;SDS011;27866;48.146;17.098;2024-03-25T11:15:00;3.75;;;1.40;;
42196;SDS011;27866;48.146;17.098;2024-03-25T11:19:14;2.90;;;1.40;;
42196;SDS011;27866;48.146;17.098;2024-03-25T11:23:35;6.13;;;1.55;;
42196;SDS011;27866;48.146;17.098;2024-03-25T11:27:53;4.35;;;1.50;;
42196;SDS011;27866;48.146;17.098;2024-03-25T11:32:08;11.35;;;1.58;;
42196;SDS011;27866;48.146;17.098;2024-03-25T11:36:21;4.80;;;1.60;;
42196;SDS011;27866;48.146;17.098;2024-03-25T11:40:35;3.22;;;1.50;;
42196;SDS011;27866;48.146;17.098;2024-03-25T11:44:47;1.85;;;1.23;;
42196;SDS011;27866;48.146;17.098;2024-03-25T11:48:59;20.08;;;2.63;;
42196;SDS011;27866;48.146;17.098;2024-03-25T11:53:12;1.63;;;1.20;;
42196;SDS011;27866;48.146;17.098;2024-03-25T11:57:27;3.78;;;1.40;;
42196;SDS011;27866;48.146;17.098;2024-03-25T12:01:39;1.52;;;1.20;;
42196;SDS011;27866;48.146;17.098;2024-03-25T12:05:51;3.83;;;1.30;;
42196;SDS011;27866;48.146;17.098;2024-03-25T12:10:02;3.03;;;1.30;;
42196;SDS011;27866;48.146;17.098;2024-03-25T12:14:33;1.85;;;1.30;;
42196;SDS011;27866;48.146;17.098;2024-03-25T12:18:45;3.60;;;1.30;;
42196;SDS011;27866;48.146;17.098;2024-03-25T12:22:57;2.13;;;1.00;;
42196;SDS011;27866;48.146;17.098;2024-03-25T12:27:09;3.35;;;1.40;;
42196;SDS011;27866;48.146;17.098;2024-03-25T12:31:23;4.13;;;1.45;;
42196;SDS011;27866;48.146;17.098;2024-03-25T12:35:35;27.13;;;1.73;;
42196;SDS011;27866;48.146;17.098;2024-03-25T12:39:47;2.65;;;1.40;;
42196;SDS011;27866;48.146;17.098;2024-03-25T12:43:59;7.40;;;1.50;;
42196;SDS011;27866;48.146;17.098;2024-03-25T12:48:10;2.08;;;1.20;;
42196;SDS011;27866;48.146;17.098;2024-03-25T12:52:22;3.70;;;1.58;;
42196;SDS011;27866;48.146;17.098;2024-03-25T12:56:34;6.05;;;1.40;;
42196;SDS011;27866;48.146;17.098;2024-03-25T13:00:45;2.75;;;1.10;;
42196;SDS011;27866;48.146;17.098;2024-03-25T13:04:57;1.82;;;1.00;;
42196;SDS011;27866;48.146;17.098;2024-03-25T13:09:09;4.35;;;1.33;;
42196;SDS011;27866;48.146;17.098;2024-03-25T13:13:21;2.33;;;1.02;;
42196;SDS011;27866;48.146;17.098;2024-03-25T13:17:33;6.95;;;1.42;;
42196;SDS011;27866;48.146;17.098;2024-03-25T13:21:44;7.25;;;1.70;;
42196;SDS011;27866;48.146;17.098;2024-03-25T13:25:56;8.38;;;1.80;;
42196;SDS011;27866;48.146;17.098;2024-03-25T13:30:08;2.95;;;1.63;;
42196;SDS011;27866;48.146;17.098;2024-03-25T13:34:20;9.73;;;1.98;;
42196;SDS011;27866;48.146;17.098;2024-03-25T13:38:32;2.28;;;1.30;;
42196;SDS011;27866;48.146;17.098;2024-03-25T13:42:43;2.25;;;1.30;;
42196;SDS011;27866;48.146;17.098;2024-03-25T13:46:57;2.10;;;1.20;;
42196;SDS011;27866;48.146;17.098;2024-03-25T13:51:09;3.75;;;1.20;;
42196;SDS011;27866;48.146;17.098;2024-03-25T13:55:21;7.10;;;1.33;;
42196;SDS011;27866;48.146;17.098;2024-03-25T13:59:32;1.83;;;1.13;;
42196;SDS011;27866;48.146;17.098;2024-03-25T14:03:45;3.42;;;1.20;;
42196;SDS011;27866;48.146;17.098;2024-03-25T14:07:59;4.53;;;1.40;;
42196;SDS011;27866;48.146;17.098;2024-03-25T14:12:11;2.05;;;1.15;;
42196;SDS011;27866;48.146;17.098;2024-03-25T14:16:22;1.88;;;1.10;;
42196;SDS011;27866;48.146;17.098;2024-03-25T14:20:34;3.25;;;1.38;;
42196;SDS011;27866;48.146;17.098;2024-03-25T14:24:46;1.48;;;1.13;;
42196;SDS011;27866;48.146;17.098;2024-03-25T14:28:58;3.05;;;1.42;;
42196;SDS011;27866;48.146;17.098;2024-03-25T14:33:12;4.43;;;1.40;;
42196;SDS011;27866;48.146;17.098;2024-03-25T14:37:24;3.15;;;1.40;;
42196;SDS011;27866;48.146;17.098;2024-03-25T14:41:39;2.72;;;1.40;;
42196;SDS011;27866;48.146;17.098;2024-03-25T14:45:52;2.42;;;1.30;;
42196;SDS011;27866;48.146;17.098;2024-03-25T14:50:04;4.22;;;1.30;;
42196;SDS011;27866;48.146;17.098;2024-03-25T14:54:17;2.80;;;1.27;;
42196;SDS011;27866;48.146;17.098;2024-03-25T14:58:29;4.63;;;1.23;;
42196;SDS011;27866;48.146;17.098;2024-03-25T15:02:41;2.03;;;1.10;;
42196;SDS011;27866;48.146;17.098;2024-03-25T15:06:52;3.30;;;1.10;;
42196;SDS011;27866;48.146;17.098;2024-03-25T15:11:04;1.70;;;1.20;;
42196;SDS011;27866;48.146;17.098;2024-03-25T15:15:16;1.63;;;1.15;;
42196;SDS011;27866;48.146;17.098;2024-03-25T15:19:28;2.55;;;1.27;;
42196;SDS011;27866;48.146;17.098;2024-03-25T15:23:40;2.25;;;1.10;;
42196;SDS011;27866;48.146;17.098;2024-03-25T15:27:51;4.22;;;1.25;;
42196;SDS011;27866;48.146;17.098;2024-03-25T15:32:03;3.20;;;1.40;;
42196;SDS011;27866;48.146;17.098;2024-03-25T15:36:15;3.70;;;1.27;;
42196;SDS011;27866;48.146;17.098;2024-03-25T15:40:27;2.67;;;1.10;;
42196;SDS011;27866;48.146;17.098;2024-03-25T15:44:39;1.92;;;1.10;;
42196;SDS011;27866;48.146;17.098;2024-03-25T15:48:52;7.50;;;1.40;;
42196;SDS011;27866;48.146;17.098;2024-03-25T15:53:03;2.90;;;1.38;;
42196;SDS011;27866;48.146;17.098;2024-03-25T15:57:15;2.90;;;1.58;;
42196;SDS011;27866;48.146;17.098;2024-03-25T16:01:27;2.35;;;1.40;;
42196;SDS011;27866;48.146;17.098;2024-03-25T16:05:39;2.63;;;1.40;;
42196;SDS011;27866;48.146;17.098;2024-03-25T16:09:51;2.38;;;1.25;;
42196;SDS011;27866;48.146;17.098;2024-03-25T16:14:02;3.88;;;1.30;;
42196;SDS011;27866;48.146;17.098;2024-03-25T16:18:14;2.05;;;1.48;;
42196;SDS011;27866;48.146;17.098;2024-03-25T16:22:26;2.38;;;1.38;;
42196;SDS011;27866;48.146;17.098;2024-03-25T16:26:38;4.15;;;1.38;;
42196;SDS011;27866;48.146;17.098;2024-03-25T16:30:49;2.28;;;1.27;;
42196;SDS011;27866;48.146;17.098;2024-03-25T16:35:01;2.80;;;1.38;;
42196;SDS011;27866;48.146;17.098;2024-03-25T16:39:14;3.28;;;1.75;;
42196;SDS011;27866;48.146;17.098;2024-03-25T16:43:26;2.55;;;1.30;;
42196;SDS011;27866;48.146;17.098;2024-03-25T16:47:38;3.42;;;1.40;;
42196;SDS011;27866;48.146;17.098;2024-03-25T16:51:50;8.30;;;1.40;;
42196;SDS011;27866;48.146;17.098;2024-03-25T16:56:02;2.65;;;1.40;;
42196;SDS011;27866;48.146;17.098;2024-03-25T17:04:28;3.55;;;1.35;;
42196;SDS011;27866;48.146;17.098;2024-03-25T17:08:40;7.05;;;1.42;;
42196;SDS011;27866;48.146;17.098;2024-03-25T17:12:52;3.40;;;1.50;;
42196;SDS011;27866;48.146;17.098;2024-03-25T17:17:04;1.83;;;1.30;;
42196;SDS011;27866;48.146;17.098;2024-03-25T17:21:15;4.15;;;1.40;;
42196;SDS011;27866;48.146;17.098;2024-03-25T17:25:27;2.22;;;1.58;;
42196;SDS011;27866;48.146;17.098;2024-03-25T17:29:42;3.90;;;1.30;;
42196;SDS011;27866;48.146;17.098;2024-03-25T17:33:57;2.92;;;1.50;;
42196;SDS011;27866;48.146;17.098;2024-03-25T17:38:09;2.47;;;1.50;;
42196;SDS011;27866;48.146;17.098;2024-03-25T17:42:21;3.85;;;1.80;;
42196;SDS011;27866;48.146;17.098;2024-03-25T17:46:32;4.30;;;1.33;;
42196;SDS011;27866;48.146;17.098;2024-03-25T17:51:04;4.70;;;1.70;;
42196;SDS011;27866;48.146;17.098;2024-03-25T17:55:16;4.97;;;1.40;;
42196;SDS011;27866;48.146;17.098;2024-03-25T17:59:27;3.78;;;1.40;;
42196;SDS011;27866;48.146;17.098;2024-03-25T18:03:39;2.63;;;1.50;;
42196;SDS011;27866;48.146;17.098;2024-03-25T18:07:51;1.77;;;1.33;;
42196;SDS011;27866;48.146;17.098;2024-03-25T18:12:03;5.85;;;1.60;;
42196;SDS011;27866;48.146;17.098;2024-03-25T18:16:15;1.88;;;1.35;;
42196;SDS011;27866;48.146;17.098;2024-03-25T18:20:29;2.65;;;1.63;;
42196;SDS011;27866;48.146;17.098;2024-03-25T18:24:40;3.15;;;1.45;;
42196;SDS011;27866;48.146;17.098;2024-03-25T18:28:52;4.10;;;1.80;;
42196;SDS011;27866;48.146;17.098;2024-03-25T18:33:04;4.53;;;1.52;;
42196;SDS011;27866;48.146;17.098;2024-03-25T18:37:16;3.28;;;1.70;;
42196;SDS011;27866;48.146;17.098;2024-03-25T18:41:28;5.40;;;1.80;;
42196;SDS011;27866;48.146;17.098;2024-03-25T18:45:40;3.22;;;1.83;;
42196;SDS011;27866;48.146;17.098;2024-03-25T18:49:52;3.97;;;1.67;;
42196;SDS011;27866;48.146;17.098;2024-03-25T18:54:04;3.90;;;1.70;;
42196;SDS011;27866;48.146;17.098;2024-03-25T18:58:16;5.85;;;1.58;;
42196;SDS011;27866;48.146;17.098;2024-03-25T19:02:30;2.85;;;1.70;;
42196;SDS011;27866;48.146;17.098;2024-03-25T19:06:46;5.72;;;3.50;;
42196;SDS011;27866;48.146;17.098;2024-03-25T19:10:58;7.72;;;3.53;;
42196;SDS011;27866;48.146;17.098;2024-03-25T19:15:10;6.88;;;3.55;;
42196;SDS011;27866;48.146;17.098;2024-03-25T19:19:22;9.13;;;3.65;;
42196;SDS011;27866;48.146;17.098;2024-03-25T19:23:34;5.10;;;3.05;;
42196;SDS011;27866;48.146;17.098;2024-03-25T19:27:46;6.25;;;3.25;;
42196;SDS011;27866;48.146;17.098;2024-03-25T19:31:57;7.57;;;3.33;;
42196;SDS011;27866;48.146;17.098;2024-03-25T19:36:09;4.45;;;2.88;;
42196;SDS011;27866;48.146;17.098;2024-03-25T19:40:21;7.30;;;3.10;;
42196;SDS011;27866;48.146;17.098;2024-03-25T19:44:36;6.10;;;3.30;;
42196;SDS011;27866;48.146;17.098;2024-03-25T19:48:48;5.57;;;3.50;;
42196;SDS011;27866;48.146;17.098;2024-03-25T19:52:59;5.93;;;3.60;;
42196;SDS011;27866;48.146;17.098;2024-03-25T19:57:11;6.80;;;3.97;;
42196;SDS011;27866;48.146;17.098;2024-03-25T20:01:24;6.82;;;4.03;;
42196;SDS011;27866;48.146;17.098;2024-03-25T20:05:35;5.15;;;3.80;;
42196;SDS011;27866;48.146;17.098;2024-03-25T20:09:47;6.65;;;3.60;;
42196;SDS011;27866;48.146;17.098;2024-03-25T20:13:59;6.15;;;3.20;;
42196;SDS011;27866;48.146;17.098;2024-03-25T20:18:11;6.07;;;3.38;;
42196;SDS011;27866;48.146;17.098;2024-03-25T20:22:23;5.40;;;3.38;;
42196;SDS011;27866;48.146;17.098;2024-03-25T20:26:35;5.38;;;3.58;;
42196;SDS011;27866;48.146;17.098;2024-03-25T20:30:47;8.55;;;3.88;;
42196;SDS011;27866;48.146;17.098;2024-03-25T20:39:15;7.63;;;4.05;;
42196;SDS011;27866;48.146;17.098;2024-03-25T20:43:27;7.10;;;3.92;;
42196;SDS011;27866;48.146;17.098;2024-03-25T20:47:38;5.90;;;3.50;;
42196;SDS011;27866;48.146;17.098;2024-03-25T20:51:50;5.43;;;3.65;;
42196;SDS011;27866;48.146;17.098;2024-03-25T20:56:02;5.47;;;3.20;;
42196;SDS011;27866;48.146;17.098;2024-03-25T21:00:14;4.45;;;3.05;;
42196;SDS011;27866;48.146;17.098;2024-03-25T21:04:25;7.78;;;3.65;;
42196;SDS011;27866;48.146;17.098;2024-03-25T21:08:37;5.70;;;3.40;;
42196;SDS011;27866;48.146;17.098;2024-03-25T21:12:49;6.15;;;3.47;;
42196;SDS011;27866;48.146;17.098;2024-03-25T21:17:00;6.13;;;3.60;;
42196;SDS011;27866;48.146;17.098;2024-03-25T21:21:13;6.60;;;3.83;;
42196;SDS011;27866;48.146;17.098;2024-03-25T21:25:24;6.05;;;3.58;;
42196;SDS011;27866;48.146;17.098;2024-03-25T21:29:36;5.30;;;3.50;;
42196;SDS011;27866;48.146;17.098;2024-03-25T21:33:48;6.13;;;3.63;;
42196;SDS011;27866;48.146;17.098;2024-03-25T21:37:59;5.75;;;3.78;;
42196;SDS011;27866;48.146;17.098;2024-03-25T21:42:11;5.38;;;3.72;;
42196;SDS011;27866;48.146;17.098;2024-03-25T21:46:23;6.03;;;3.45;;
42196;SDS011;27866;48.146;17.098;2024-03-25T21:50:34;6.10;;;3.22;;
42196;SDS011;27866;48.146;17.098;2024-03-25T21:54:46;4.97;;;3.50;;
42196;SDS011;27866;48.146;17.098;2024-03-25T21:58:59;4.75;;;3.22;;
42196;SDS011;27866;48.146;17.098;2024-03-25T22:03:10;6.07;;;3.30;;
42196;SDS011;27866;48.146;17.098;2024-03-25T22:07:22;6.35;;;4.10;;
42196;SDS011;27866;48.146;17.098;2024-03-25T22:11:34;5.97;;;3.70;;
42196;SDS011;27866;48.146;17.098;2024-03-25T22:15:46;5.53;;;3.50;;
42196;SDS011;27866;48.146;17.098;2024-03-25T22:20:07;7.50;;;3.78;;
42196;SDS011;27866;48.146;17.098;2024-03-25T22:24:19;5.60;;;3.60;;
42196;SDS011;27866;48.146;17.098;2024-03-25T22:28:30;5.55;;;4.20;;
42196;SDS011;27866;48.146;17.098;2024-03-25T22:32:42;6.85;;;4.43;;
42196;SDS011;27866;48.146;17.098;2024-03-25T22:36:54;7.07;;;4.63;;
42196;SDS011;27866;48.146;17.098;2024-03-25T22:41:06;5.40;;;3.92;;
42196;SDS011;27866;48.146;17.098;2024-03-25T22:45:17;7.22;;;4.80;;
42196;SDS011;27866;48.146;17.098;2024-03-25T22:49:29;10.75;;;5.25;;
42196;SDS011;27866;48.146;17.098;2024-03-25T22:53:41;7.20;;;5.07;;
42196;SDS011;27866;48.146;17.098;2024-03-25T22:57:52;9.88;;;5.38;;
42196;SDS011;27866;48.146;17.098;2024-03-25T23:02:05;7.97;;;5.40;;
42196;SDS011;27866;48.146;17.098;2024-03-25T23:06:17;10.38;;;5.53;;
42196;SDS011;27866;48.146;17.098;2024-03-25T23:10:29;10.15;;;5.93;;
42196;SDS011;27866;48.146;17.098;2024-03-25T23:14:41;10.05;;;6.43;;
42196;SDS011;27866;48.146;17.098;2024-03-25T23:18:52;9.77;;;6.18;;
42196;SDS011;27866;48.146;17.098;2024-03-25T23:23:04;11.52;;;6.45;;
42196;SDS011;27866;48.146;17.098;2024-03-25T23:27:16;9.90;;;6.00;;
42196;SDS011;27866;48.146;17.098;2024-03-25T23:31:27;10.63;;;6.80;;
42196;SDS011;27866;48.146;17.098;2024-03-25T23:35:39;12.10;;;6.25;;
42196;SDS011;27866;48.146;17.098;2024-03-25T23:39:50;15.05;;;6.82;;
42196;SDS011;27866;48.146;17.098;2024-03-25T23:44:02;9.40;;;6.47;;
42196;SDS011;27866;48.146;17.098;2024-03-25T23:48:14;10.57;;;6.47;;
42196;SDS011;27866;48.146;17.098;2024-03-25T23:52:26;12.63;;;6.50;;
42196;SDS011;27866;48.146;17.098;2024-03-25T23:56:37;11.00;;;6.55;;
